createdAt,value
2023-10-14T00:00:47.963Z,15.10
2023-10-14T00:03:36.837Z,15.10
2023-10-14T00:06:25.160Z,15.10
2023-10-14T00:09:15.369Z,15.00
2023-10-14T00:12:10.583Z,15.00
2023-10-14T00:15:05.442Z,15.10
2023-10-14T00:17:53.604Z,15.00
2023-10-14T00:20:41.915Z,15.10
2023-10-14T00:23:29.179Z,15.20
2023-10-14T00:26:21.730Z,15.30
2023-10-14T00:29:17.316Z,15.30
2023-10-14T00:32:06.160Z,15.30
2023-10-14T00:34:53.960Z,15.20
2023-10-14T00:37:41.736Z,15.20
2023-10-14T00:40:29.049Z,15.20
2023-10-14T00:43:18.479Z,15.30
2023-10-14T00:46:13.034Z,15.30
2023-10-14T00:49:06.824Z,15.20
2023-10-14T00:52:00.725Z,15.30
2023-10-14T00:54:55.022Z,15.30
2023-10-14T00:57:52.263Z,15.30
2023-10-14T01:00:58.716Z,15.40
2023-10-14T01:03:50.138Z,15.40
2023-10-14T01:06:55.448Z,15.30
2023-10-14T01:09:43.041Z,15.40
2023-10-14T01:12:40.972Z,15.30
2023-10-14T01:15:32.174Z,15.10
2023-10-14T01:18:21.637Z,15.10
2023-10-14T01:21:09.750Z,15.20
2023-10-14T01:24:02.015Z,15.30
2023-10-14T01:27:02.473Z,15.30
2023-10-14T01:29:53.233Z,15.30
2023-10-14T01:32:50.318Z,15.40
2023-10-14T01:35:43.656Z,15.50
2023-10-14T01:38:32.490Z,15.60
2023-10-14T01:41:21.722Z,15.70
2023-10-14T01:44:10.809Z,15.60
2023-10-14T01:46:59.241Z,15.60
2023-10-14T01:49:46.652Z,15.60
2023-10-14T01:52:35.122Z,15.60
2023-10-14T01:55:22.566Z,15.60
2023-10-14T01:58:14.774Z,15.60
2023-10-14T02:01:08.733Z,15.70
2023-10-14T02:04:01.438Z,15.60
2023-10-14T02:07:04.023Z,15.60
2023-10-14T02:09:57.218Z,15.60
2023-10-14T02:12:44.624Z,15.60
2023-10-14T02:15:36.664Z,15.60
2023-10-14T02:18:24.286Z,15.70
2023-10-14T02:21:13.523Z,15.80
2023-10-14T02:24:01.374Z,15.80
2023-10-14T02:26:50.197Z,15.80
2023-10-14T02:29:38.589Z,15.80
2023-10-14T02:32:28.151Z,15.80
2023-10-14T02:35:19.083Z,15.80
2023-10-14T02:38:06.436Z,15.80
2023-10-14T02:40:56.255Z,15.80
2023-10-14T02:43:49.781Z,15.70
2023-10-14T02:46:49.032Z,15.80
2023-10-14T02:49:39.745Z,15.70
2023-10-14T02:52:31.236Z,15.50
2023-10-14T02:55:24.393Z,15.50
2023-10-14T02:58:12.562Z,15.60
2023-10-14T03:01:00.763Z,15.70
2023-10-14T03:03:49.078Z,15.70
2023-10-14T03:06:47.846Z,15.80
2023-10-14T03:09:36.019Z,15.90
2023-10-14T03:12:23.829Z,16.00
2023-10-14T03:15:21.353Z,16.00
2023-10-14T03:18:10.825Z,16.20
2023-10-14T03:20:58.078Z,16.20
2023-10-14T03:23:47.530Z,16.50
2023-10-14T03:26:34.972Z,16.70
2023-10-14T03:29:26.976Z,17.10
2023-10-14T03:32:14.257Z,17.50
2023-10-14T03:35:13.578Z,17.80
2023-10-14T03:38:08.480Z,18.00
2023-10-14T03:41:04.852Z,18.10
2023-10-14T03:43:59.391Z,18.20
2023-10-14T03:46:49.202Z,18.20
2023-10-14T03:49:39.640Z,18.40
2023-10-14T03:52:28.307Z,18.50
2023-10-14T03:55:16.199Z,18.50
2023-10-14T03:58:06.267Z,18.70
2023-10-14T04:00:54.176Z,18.70
2023-10-14T04:03:41.810Z,18.70
2023-10-14T04:06:35.793Z,18.70
2023-10-14T04:09:26.246Z,18.80
2023-10-14T04:12:33.433Z,18.80
2023-10-14T04:15:25.018Z,18.80
2023-10-14T04:18:16.581Z,18.80
2023-10-14T04:21:17.105Z,18.80
2023-10-14T04:24:27.946Z,18.80
2023-10-14T04:27:19.125Z,18.80
2023-10-14T04:30:14.117Z,18.70
2023-10-14T04:33:04.000Z,18.80
2023-10-14T04:36:09.957Z,18.90
2023-10-14T04:39:12.930Z,18.90
2023-10-14T04:42:19.074Z,18.90
2023-10-14T04:45:08.495Z,18.90
2023-10-14T04:47:56.864Z,18.90
2023-10-14T04:50:57.966Z,18.90
2023-10-14T04:53:47.195Z,18.90
2023-10-14T04:56:35.063Z,19.00
2023-10-14T04:59:26.905Z,19.00
2023-10-14T05:02:21.880Z,19.00
2023-10-14T05:05:10.048Z,19.00
2023-10-14T05:08:05.251Z,19.00
2023-10-14T05:10:53.940Z,19.00
2023-10-14T05:13:43.996Z,19.10
2023-10-14T05:16:32.827Z,19.10
2023-10-14T05:19:31.152Z,19.10
2023-10-14T05:22:25.857Z,19.10
2023-10-14T05:25:17.750Z,19.10
2023-10-14T05:28:08.083Z,19.10
2023-10-14T05:30:57.254Z,19.10
2023-10-14T05:33:44.516Z,19.00
2023-10-14T05:36:33.179Z,19.00
2023-10-14T05:39:22.310Z,19.00
2023-10-14T05:42:17.604Z,18.90
2023-10-14T05:45:07.487Z,19.00
2023-10-14T05:47:54.737Z,18.90
2023-10-14T05:50:43.099Z,18.90
2023-10-14T05:53:32.835Z,18.90
2023-10-14T05:56:20.705Z,18.90
2023-10-14T05:59:12.462Z,19.00
2023-10-14T06:01:59.961Z,19.00
2023-10-14T06:04:52.157Z,19.00
2023-10-14T06:07:40.687Z,19.00
2023-10-14T06:10:31.464Z,19.00
2023-10-14T06:13:18.820Z,19.00
2023-10-14T06:16:11.496Z,18.90
2023-10-14T06:18:59.186Z,19.00
2023-10-14T06:21:47.381Z,19.00
2023-10-14T06:24:35.559Z,19.00
2023-10-14T06:27:24.020Z,19.10
2023-10-14T06:30:20.156Z,19.00
2023-10-14T06:33:09.819Z,19.00
2023-10-14T06:36:04.777Z,19.00
2023-10-14T06:38:53.495Z,19.00
2023-10-14T06:41:44.558Z,19.00
2023-10-14T06:44:34.215Z,19.00
2023-10-14T06:47:23.297Z,19.00
2023-10-14T06:50:14.027Z,19.00
2023-10-14T06:53:01.405Z,19.00
2023-10-14T06:55:51.100Z,19.00
2023-10-14T06:58:40.357Z,19.10
2023-10-14T07:01:30.652Z,19.10
2023-10-14T07:04:18.139Z,19.10
2023-10-14T07:07:13.145Z,19.00
2023-10-14T07:10:01.692Z,19.00
2023-10-14T07:12:49.866Z,19.00
2023-10-14T07:15:39.466Z,19.00
2023-10-14T07:18:27.331Z,19.00
2023-10-14T07:21:14.777Z,19.00
2023-10-14T07:24:07.528Z,19.00
2023-10-14T07:26:58.413Z,19.00
2023-10-14T07:29:47.585Z,19.00
2023-10-14T07:32:35.547Z,19.20
2023-10-14T07:35:24.294Z,19.30
2023-10-14T07:38:15.011Z,19.40
2023-10-14T07:41:04.713Z,19.30
2023-10-14T07:43:51.931Z,19.30
2023-10-14T07:46:40.029Z,19.30
2023-10-14T07:49:27.775Z,19.10
2023-10-14T07:52:16.673Z,19.10
2023-10-14T07:55:06.808Z,19.10
2023-10-14T07:57:57.555Z,19.10
2023-10-14T08:00:51.859Z,19.20
2023-10-14T08:03:39.986Z,19.20
2023-10-14T08:06:28.164Z,19.20
2023-10-14T08:09:29.930Z,19.20
2023-10-14T08:12:18.156Z,19.10
2023-10-14T08:15:07.592Z,19.10
2023-10-14T08:17:59.439Z,19.10
2023-10-14T08:20:47.867Z,18.90
2023-10-14T08:23:35.110Z,18.90
2023-10-14T08:26:24.000Z,18.90
2023-10-14T08:29:13.589Z,19.00
2023-10-14T08:32:05.289Z,19.00
2023-10-14T08:34:52.603Z,19.10
2023-10-14T08:37:40.706Z,19.10
2023-10-14T08:40:30.389Z,19.30
2023-10-14T08:43:21.962Z,19.10
2023-10-14T08:46:10.671Z,19.40
2023-10-14T08:49:00.589Z,19.50
2023-10-14T08:51:54.294Z,19.50
2023-10-14T08:54:44.187Z,19.20
2023-10-14T08:57:33.129Z,19.10
2023-10-14T09:00:22.257Z,19.10
2023-10-14T09:03:14.041Z,19.00
2023-10-14T09:06:07.861Z,19.00
2023-10-14T09:08:56.644Z,19.00
2023-10-14T09:11:43.952Z,18.90
2023-10-14T09:14:32.069Z,19.00
2023-10-14T09:17:19.477Z,18.90
2023-10-14T09:20:08.759Z,18.80
2023-10-14T09:25:52.234Z,18.80
2023-10-14T09:28:42.632Z,18.90
2023-10-14T09:31:30.814Z,19.00
2023-10-14T09:34:24.812Z,19.10
2023-10-14T09:37:14.715Z,19.20
2023-10-14T09:40:09.171Z,19.10
2023-10-14T09:42:59.241Z,19.00
2023-10-14T09:45:51.760Z,19.00
2023-10-14T09:48:40.624Z,18.80
2023-10-14T09:51:29.109Z,18.90
2023-10-14T09:54:18.331Z,18.70
2023-10-14T09:57:06.705Z,18.80
2023-10-14T09:59:57.146Z,18.70
2023-10-14T10:02:50.818Z,18.70
2023-10-14T10:05:42.461Z,18.60
2023-10-14T10:08:50.054Z,18.60
2023-10-14T10:11:39.273Z,18.60
2023-10-14T10:14:27.877Z,18.60
2023-10-14T10:17:17.319Z,18.60
2023-10-14T10:20:10.954Z,18.60
2023-10-14T10:23:00.043Z,18.60
2023-10-14T10:25:49.271Z,18.50
2023-10-14T10:28:40.243Z,18.50
2023-10-14T10:31:28.488Z,18.50
2023-10-14T10:34:19.768Z,18.50
2023-10-14T10:37:07.946Z,18.60
2023-10-14T10:39:55.211Z,18.60
2023-10-14T10:42:49.047Z,18.50
2023-10-14T10:45:38.339Z,18.40
2023-10-14T10:48:27.543Z,18.50
2023-10-14T10:51:16.145Z,18.60
2023-10-14T10:54:04.826Z,18.80
2023-10-14T10:57:06.962Z,19.00
2023-10-14T10:59:56.140Z,18.90
2023-10-14T11:02:45.668Z,19.00
2023-10-14T11:05:34.716Z,19.20
2023-10-14T11:08:24.486Z,19.40
2023-10-14T11:11:13.634Z,19.90
2023-10-14T11:14:02.598Z,20.10
2023-10-14T11:16:53.866Z,20.40
2023-10-14T11:19:41.560Z,20.30
2023-10-14T11:22:29.987Z,20.40
2023-10-14T11:25:27.755Z,20.40
2023-10-14T11:28:17.202Z,20.30
2023-10-14T11:31:06.876Z,20.40
2023-10-14T11:33:57.308Z,20.20
2023-10-14T11:36:45.635Z,20.00
2023-10-14T11:39:34.366Z,20.10
2023-10-14T11:42:24.690Z,20.00
2023-10-14T11:45:12.851Z,20.00
2023-10-14T11:48:02.823Z,20.10
2023-10-14T11:50:53.776Z,20.20
2023-10-14T11:53:45.442Z,20.00
2023-10-14T11:56:34.124Z,20.00
2023-10-14T11:59:23.756Z,19.90
2023-10-14T12:02:11.153Z,19.80
2023-10-14T12:04:59.319Z,19.90
2023-10-14T12:07:48.304Z,19.90
2023-10-14T12:10:36.844Z,20.20
2023-10-14T12:13:37.655Z,20.70
2023-10-14T12:16:35.355Z,20.60
2023-10-14T12:19:22.900Z,20.40
2023-10-14T12:22:11.589Z,20.40
2023-10-14T12:24:58.946Z,20.40
2023-10-14T12:27:47.032Z,20.30
2023-10-14T12:30:44.118Z,20.20
2023-10-14T12:33:34.135Z,20.20
2023-10-14T12:36:23.996Z,20.20
2023-10-14T12:39:21.723Z,20.20
2023-10-14T12:42:09.095Z,20.10
2023-10-14T12:44:57.187Z,20.20
2023-10-14T12:47:48.554Z,20.20
2023-10-14T12:50:42.149Z,20.10
2023-10-14T12:53:32.854Z,20.00
2023-10-14T12:56:24.199Z,20.00
2023-10-14T12:59:14.799Z,20.00
2023-10-14T13:02:05.341Z,20.10
2023-10-14T13:04:53.181Z,20.10
2023-10-14T13:07:42.677Z,20.00
2023-10-14T13:10:30.741Z,20.00
2023-10-14T13:13:18.738Z,20.00
2023-10-14T13:16:06.998Z,19.90
2023-10-14T13:19:00.609Z,19.90
2023-10-14T13:21:48.476Z,19.80
2023-10-14T13:24:37.475Z,19.60
2023-10-14T13:27:26.356Z,19.50
2023-10-14T13:30:17.225Z,19.60
2023-10-14T13:33:07.498Z,19.70
2023-10-14T13:35:57.508Z,19.60
2023-10-14T13:38:48.387Z,19.50
2023-10-14T13:41:39.915Z,19.40
2023-10-14T13:44:27.679Z,19.20
2023-10-14T13:47:19.303Z,19.20
2023-10-14T13:50:07.998Z,19.10
2023-10-14T13:52:58.387Z,18.60
2023-10-14T13:55:46.434Z,17.90
2023-10-14T13:58:36.852Z,17.40
2023-10-14T14:01:24.261Z,17.00
2023-10-14T14:04:19.076Z,16.90
2023-10-14T14:07:07.682Z,16.80
2023-10-14T14:09:55.944Z,16.90
2023-10-14T14:12:43.493Z,16.80
2023-10-14T14:15:33.659Z,16.70
2023-10-14T14:18:21.902Z,16.80
2023-10-14T14:21:09.629Z,16.90
2023-10-14T14:23:56.891Z,16.90
2023-10-14T14:26:44.985Z,16.90
2023-10-14T14:29:32.332Z,17.00
2023-10-14T14:32:22.406Z,16.90
2023-10-14T14:35:11.083Z,16.90
2023-10-14T14:38:00.586Z,16.90
2023-10-14T14:40:48.384Z,16.90
2023-10-14T14:43:37.124Z,16.70
2023-10-14T14:46:24.762Z,16.50
2023-10-14T14:49:14.616Z,16.40
2023-10-14T14:52:02.732Z,16.40
2023-10-14T14:54:50.462Z,16.20
2023-10-14T14:57:39.952Z,16.10
2023-10-14T15:00:29.009Z,16.10
2023-10-14T15:03:16.406Z,16.10
2023-10-14T15:06:05.992Z,15.80
2023-10-14T15:08:53.819Z,14.70
2023-10-14T15:11:41.087Z,14.40
2023-10-14T15:14:30.684Z,14.30
2023-10-14T15:17:19.704Z,14.20
2023-10-14T15:20:09.857Z,14.30
2023-10-14T15:23:00.713Z,14.20
2023-10-14T15:25:48.921Z,14.20
2023-10-14T15:28:37.231Z,14.20
2023-10-14T15:31:25.651Z,14.00
2023-10-14T15:34:14.012Z,13.90
2023-10-14T15:37:01.395Z,14.00
2023-10-14T15:39:51.165Z,14.00
2023-10-14T15:42:39.049Z,14.00
2023-10-14T15:45:27.185Z,14.00
2023-10-14T15:48:16.579Z,14.00
2023-10-14T15:51:04.718Z,13.90
2023-10-14T15:53:54.019Z,13.90
2023-10-14T15:56:43.661Z,13.90
2023-10-14T15:59:31.812Z,14.00
2023-10-14T16:02:20.009Z,14.00
2023-10-14T16:05:10.243Z,13.80
2023-10-14T16:08:01.565Z,13.80
2023-10-14T16:10:50.157Z,13.80
2023-10-14T16:13:40.221Z,13.80
2023-10-14T16:16:27.534Z,13.80
2023-10-14T16:19:18.991Z,13.70
2023-10-14T16:22:06.361Z,13.80
2023-10-14T16:24:56.376Z,13.80
2023-10-14T16:27:44.584Z,13.80
2023-10-14T16:30:38.991Z,13.70
2023-10-14T16:33:26.675Z,13.80
2023-10-14T16:36:17.440Z,13.70
2023-10-14T16:39:10.282Z,13.60
2023-10-14T16:41:58.453Z,13.70
2023-10-14T16:44:47.202Z,13.70
2023-10-14T16:47:36.820Z,13.60
2023-10-14T16:50:28.884Z,13.50
2023-10-14T16:53:17.533Z,13.50
2023-10-14T16:56:05.503Z,13.40
2023-10-14T16:58:53.461Z,13.50
2023-10-14T17:01:40.795Z,13.40
2023-10-14T17:04:30.560Z,13.40
2023-10-14T17:07:17.822Z,13.30
2023-10-14T17:10:09.621Z,13.40
2023-10-14T17:12:58.761Z,13.40
2023-10-14T17:15:47.095Z,13.40
2023-10-14T17:18:34.262Z,13.40
2023-10-14T17:21:25.237Z,13.20
2023-10-14T17:24:15.363Z,13.20
2023-10-14T17:27:03.519Z,13.20
2023-10-14T17:29:51.850Z,13.20
2023-10-14T17:32:40.380Z,13.30
2023-10-14T17:35:28.060Z,13.30
2023-10-14T17:38:18.582Z,13.40
2023-10-14T17:41:08.169Z,13.30
2023-10-14T17:43:56.214Z,13.30
2023-10-14T17:46:44.120Z,13.30
2023-10-14T17:49:32.877Z,13.30
2023-10-14T17:52:20.109Z,13.20
2023-10-14T17:55:12.397Z,13.00
2023-10-14T17:57:59.566Z,12.90
2023-10-14T18:00:47.734Z,12.70
2023-10-14T18:03:35.569Z,12.50
2023-10-14T18:06:23.041Z,12.50
2023-10-14T18:09:15.064Z,12.30
2023-10-14T18:12:05.531Z,12.30
2023-10-14T18:14:55.974Z,12.30
2023-10-14T18:17:44.413Z,12.30
2023-10-14T18:20:34.753Z,12.10
2023-10-14T18:23:22.415Z,12.00
2023-10-14T18:26:11.440Z,11.90
2023-10-14T18:29:00.777Z,11.80
2023-10-14T18:31:48.987Z,11.70
2023-10-14T18:34:36.730Z,11.60
2023-10-14T18:37:24.491Z,11.60
2023-10-14T18:40:14.809Z,11.40
2023-10-14T18:43:07.172Z,11.40
2023-10-14T18:45:55.839Z,11.40
2023-10-14T18:48:43.608Z,11.30
2023-10-14T18:51:32.222Z,11.20
2023-10-14T18:54:20.739Z,11.20
2023-10-14T18:57:11.182Z,11.20
2023-10-14T18:59:59.555Z,11.20
2023-10-14T19:02:50.562Z,11.10
2023-10-14T19:05:39.813Z,11.00
2023-10-14T19:08:27.969Z,11.00
2023-10-14T19:11:16.673Z,10.80
2023-10-14T19:14:05.045Z,10.80
2023-10-14T19:16:53.003Z,10.70
2023-10-14T19:19:43.589Z,10.60
2023-10-14T19:22:31.939Z,10.60
2023-10-14T19:25:22.083Z,10.60
2023-10-14T19:28:11.635Z,10.60
2023-10-14T19:31:02.365Z,10.60
2023-10-14T19:33:50.910Z,10.60
2023-10-14T19:36:39.508Z,10.60
2023-10-14T19:39:28.941Z,10.60
2023-10-14T19:42:17.014Z,10.60
2023-10-14T19:45:05.320Z,10.50
2023-10-14T19:47:53.781Z,10.40
2023-10-14T19:50:46.129Z,10.40
2023-10-14T19:53:36.305Z,10.50
2023-10-14T19:56:25.073Z,10.50
2023-10-14T19:59:12.428Z,10.40
2023-10-14T20:02:01.272Z,10.30
2023-10-14T20:04:48.562Z,10.40
2023-10-14T20:07:36.976Z,10.30
2023-10-14T20:10:26.713Z,10.30
2023-10-14T20:13:16.240Z,10.30
2023-10-14T20:16:05.966Z,10.30
2023-10-14T20:18:54.451Z,10.20
2023-10-14T20:21:42.389Z,10.20
2023-10-14T20:24:30.575Z,10.20
2023-10-14T20:27:19.821Z,10.10
2023-10-14T20:30:09.807Z,10.20
2023-10-14T20:32:59.950Z,10.20
2023-10-14T20:35:47.362Z,10.30
2023-10-14T20:38:35.945Z,10.30
2023-10-14T20:41:23.831Z,10.20
2023-10-14T20:44:16.089Z,10.10
2023-10-14T20:47:04.089Z,10.10
2023-10-14T20:49:52.493Z,10.20
2023-10-14T20:52:42.435Z,10.20
2023-10-14T20:55:31.016Z,10.20
2023-10-14T20:58:18.392Z,10.20
2023-10-14T21:01:15.862Z,10.30
2023-10-14T21:04:04.819Z,10.20
2023-10-14T21:06:54.348Z,10.20
2023-10-14T21:09:41.751Z,10.20
2023-10-14T21:12:30.095Z,10.30
2023-10-14T21:15:18.958Z,10.20
2023-10-14T21:18:10.005Z,10.10
2023-10-14T21:20:58.116Z,10.20
2023-10-14T21:23:47.748Z,10.30
2023-10-14T21:26:40.018Z,10.30
2023-10-14T21:29:27.264Z,10.30
2023-10-14T21:32:15.627Z,10.30
2023-10-14T21:35:06.226Z,10.30
2023-10-14T21:37:55.257Z,10.30
2023-10-14T21:40:43.755Z,10.20
2023-10-14T21:43:32.076Z,10.20
2023-10-14T21:46:20.665Z,10.30
2023-10-14T21:49:09.105Z,10.20
2023-10-14T21:51:58.221Z,10.30
2023-10-14T21:54:46.076Z,10.30
2023-10-14T21:57:33.542Z,10.30
2023-10-14T22:00:23.811Z,10.30
2023-10-14T22:03:15.306Z,10.20
2023-10-14T22:06:06.765Z,10.30
2023-10-14T22:08:56.270Z,10.20
2023-10-14T22:11:43.623Z,10.30
2023-10-14T22:14:31.855Z,10.30
2023-10-14T22:17:19.639Z,10.30
2023-10-14T22:20:11.005Z,10.20
2023-10-14T22:23:03.405Z,10.20
2023-10-14T22:25:52.614Z,10.20
2023-10-14T22:28:42.107Z,10.20
2023-10-14T22:31:30.948Z,10.20
2023-10-14T22:34:18.740Z,10.20
2023-10-14T22:37:11.967Z,10.20
2023-10-14T22:40:03.108Z,10.20
2023-10-14T22:42:57.360Z,10.20
2023-10-14T22:45:45.128Z,10.20
2023-10-14T22:48:32.918Z,10.20
2023-10-14T22:51:23.183Z,10.20
2023-10-14T22:54:11.627Z,10.20
2023-10-14T22:56:58.909Z,10.10
2023-10-14T22:59:48.907Z,10.20
2023-10-14T23:02:37.677Z,10.20
2023-10-14T23:05:30.712Z,10.20
2023-10-14T23:08:20.319Z,10.20
2023-10-14T23:11:08.507Z,10.20
2023-10-14T23:13:56.350Z,10.20
2023-10-14T23:16:44.986Z,10.20
2023-10-14T23:19:32.582Z,10.20
2023-10-14T23:22:21.016Z,10.10
2023-10-14T23:25:16.055Z,10.10
2023-10-14T23:28:03.709Z,10.10
2023-10-14T23:30:51.979Z,10.10
2023-10-14T23:33:43.128Z,10.10
2023-10-14T23:36:30.317Z,10.10
2023-10-14T23:39:29.075Z,10.00
2023-10-14T23:42:17.822Z,10.10
2023-10-14T23:45:14.015Z,10.00
2023-10-14T23:48:03.255Z,10.00
2023-10-14T23:50:53.179Z,10.00
2023-10-14T23:53:40.958Z,10.00
2023-10-14T23:56:28.227Z,10.10
2023-10-14T23:59:17.122Z,10.10
